Time;durP1;ratioP1;P1;durP2;ratioP2;P2;SDS_P1;SDS_P2;PMS_P1;PMS_P2;Temp;Humidity;BMP_temperature;BMP_pressure;BME280_temperature;BME280_humidity;BME280_pressure;Samples;Min_cycle;Max_cycle;Signal;HPM_P1;HPM_P2
2022/01/12 14:18:19;;;;;;;3.30;1.80;;;14.70;74.40;;;;;;2299833;62;30273;-75
2022/01/12 14:20:47;;;;;;;2.60;1.55;;;14.70;74.10;;;;;;2283630;62;30302;-72
2022/01/12 14:23:15;;;;;;;3.58;1.63;;;14.70;75.00;;;;;;2291445;62;30214;-71
2022/01/12 14:25:46;;;;;;;3.92;1.65;;;14.60;75.90;;;;;;2291387;62;32406;-71
2022/01/12 14:28:14;;;;;;;4.00;1.38;;;14.60;76.70;;;;;;2284067;62;30576;-70
2022/01/12 14:30:43;;;;;;;4.60;2.17;;;14.60;77.20;;;;;;2291423;62;30335;-70
2022/01/12 14:33:09;;;;;;;4.40;1.58;;;14.60;77.60;;;;;;2284164;62;30082;-71
2022/01/12 14:35:35;;;;;;;2.03;1.25;;;14.60;78.00;;;;;;2290794;62;30565;-71
2022/01/12 14:38:01;;;;;;;3.30;1.48;;;14.60;78.10;;;;;;2290933;62;30247;-71
2022/01/12 14:40:27;;;;;;;1.98;1.55;;;14.60;78.40;;;;;;2291178;62;30256;-71
2022/01/12 14:42:54;;;;;;;2.42;1.70;;;14.50;78.50;;;;;;2291046;62;30464;-73
2022/01/12 14:45:24;;;;;;;8.13;1.80;;;14.50;78.80;;;;;;2283776;62;30810;-71
2022/01/12 14:47:51;;;;;;;5.47;1.90;;;14.50;79.00;;;;;;2291229;62;30677;-71
2022/01/12 14:50:18;;;;;;;3.63;1.75;;;14.40;79.00;;;;;;2283646;62;30163;-71
2022/01/12 14:52:44;;;;;;;1.75;1.55;;;14.40;79.10;;;;;;2283201;62;30166;-72
2022/01/12 14:55:10;;;;;;;3.42;1.60;;;14.30;79.00;;;;;;2290875;62;31065;-72
2022/01/12 14:57:36;;;;;;;4.43;1.73;;;14.30;79.10;;;;;;2290769;62;30766;-72
2022/01/12 15:00:05;;;;;;;4.55;2.28;;;14.30;79.10;;;;;;2291059;62;30092;-72
2022/01/12 15:02:33;;;;;;;4.65;1.90;;;14.30;79.20;;;;;;2291107;62;30306;-77
2022/01/12 15:04:59;;;;;;;5.35;1.80;;;14.30;79.00;;;;;;2283565;62;30803;-77
2022/01/12 15:07:26;;;;;;;3.38;1.45;;;14.30;78.80;;;;;;2283673;62;30315;-76
2022/01/12 15:09:54;;;;;;;3.83;1.65;;;14.40;78.60;;;;;;2283523;62;30265;-76
2022/01/12 15:12:36;;;;;;;2.40;1.58;;;14.40;78.50;;;;;;2291145;62;30368;-76
2022/01/12 15:15:03;;;;;;;5.93;2.08;;;14.50;78.20;;;;;;2284637;62;30323;-74
2022/01/12 15:17:31;;;;;;;2.33;1.40;;;14.60;78.00;;;;;;2290553;62;30246;-75
2022/01/12 15:19:57;;;;;;;3.28;1.40;;;14.60;77.90;;;;;;2277139;62;30310;-76
2022/01/12 15:22:24;;;;;;;2.88;1.65;;;14.70;78.20;;;;;;2276791;62;30065;-75
2022/01/12 15:24:50;;;;;;;3.03;1.52;;;14.70;77.70;;;;;;2290771;62;30801;-76
2022/01/12 15:27:19;;;;;;;4.82;1.50;;;14.80;77.50;;;;;;2283580;62;30260;-75
2022/01/12 15:29:44;;;;;;;2.55;1.70;;;14.80;77.30;;;;;;2278061;62;30082;-75
2022/01/12 15:32:10;;;;;;;1.65;1.30;;;14.80;77.20;;;;;;2285194;62;30143;-79
2022/01/12 15:34:36;;;;;;;3.13;1.50;;;14.90;77.20;;;;;;2278108;62;30776;-76
2022/01/12 15:37:03;;;;;;;2.45;1.60;;;14.90;77.00;;;;;;2277926;62;30136;-77
2022/01/12 15:39:29;;;;;;;2.47;1.60;;;14.90;77.00;;;;;;2271150;62;30283;-76
2022/01/12 15:41:55;;;;;;;4.10;1.40;;;14.90;76.80;;;;;;2285465;62;30301;-75
2022/01/12 15:44:21;;;;;;;2.55;1.58;;;15.00;76.80;;;;;;2285307;62;30955;-77
2022/01/12 15:46:49;;;;;;;1.90;1.60;;;15.00;76.70;;;;;;2285102;62;30265;-77
2022/01/12 15:49:15;;;;;;;2.55;1.45;;;15.00;76.60;;;;;;2285420;62;30111;-78
2022/01/12 15:51:41;;;;;;;5.47;1.90;;;15.00;76.50;;;;;;2285336;62;30345;-79
2022/01/12 15:54:07;;;;;;;3.67;1.60;;;15.00;76.40;;;;;;2285057;62;30279;-81
2022/01/12 15:56:37;;;;;;;1.58;1.48;;;15.10;76.30;;;;;;2283862;62;30137;-78
2022/01/12 15:59:06;;;;;;;2.20;1.63;;;15.10;76.10;;;;;;2270228;62;30270;-76
2022/01/12 16:01:38;;;;;;;3.55;1.50;;;15.10;76.10;;;;;;2277212;62;30301;-75
2022/01/12 16:04:10;;;;;;;2.30;1.63;;;15.10;76.00;;;;;;2277297;62;30160;-76
2022/01/12 16:06:35;;;;;;;3.70;1.75;;;15.10;75.90;;;;;;2284589;62;30486;-75
2022/01/12 16:09:01;;;;;;;5.22;1.80;;;15.10;75.80;;;;;;2277836;62;30283;-76
2022/01/12 16:11:28;;;;;;;2.45;1.88;;;15.10;75.70;;;;;;2285079;62;30314;-75
2022/01/12 16:13:54;;;;;;;3.72;1.80;;;15.10;75.80;;;;;;2284871;62;30003;-75
2022/01/12 16:16:23;;;;;;;5.80;1.58;;;15.10;75.70;;;;;;2284932;62;30096;-75
2022/01/12 16:18:49;;;;;;;4.40;1.80;;;15.20;75.80;;;;;;2285037;62;30253;-75
2022/01/12 16:21:15;;;;;;;2.85;1.70;;;15.30;75.70;;;;;;2284950;62;30032;-76
2022/01/12 16:23:42;;;;;;;2.80;1.60;;;15.30;75.60;;;;;;2285096;62;31247;-75
2022/01/12 16:26:08;;;;;;;2.90;1.65;;;15.40;75.60;;;;;;2285006;62;31542;-76
2022/01/12 16:28:34;;;;;;;1.95;1.45;;;15.40;75.50;;;;;;2270529;62;30059;-73
2022/01/12 16:31:01;;;;;;;3.08;1.50;;;15.40;75.40;;;;;;2270902;62;30079;-73
2022/01/12 16:33:31;;;;;;;2.08;1.42;;;15.40;75.30;;;;;;2284853;62;30166;-73
2022/01/12 16:35:57;;;;;;;1.80;1.42;;;15.40;75.20;;;;;;2277339;62;30223;-76
2022/01/12 16:38:23;;;;;;;2.67;1.48;;;15.40;75.20;;;;;;2285041;62;30066;-73
2022/01/12 16:40:51;;;;;;;3.78;2.00;;;15.50;75.10;;;;;;2284623;62;30020;-74
2022/01/12 16:43:18;;;;;;;1.80;1.33;;;15.50;75.10;;;;;;2284858;62;30964;-76
2022/01/12 16:45:43;;;;;;;1.50;1.40;;;15.50;75.00;;;;;;2277683;62;30274;-77
2022/01/12 16:48:09;;;;;;;2.75;1.50;;;15.50;75.00;;;;;;2285224;62;30014;-74
2022/01/12 16:50:35;;;;;;;3.55;1.20;;;15.50;74.90;;;;;;2273881;62;31817;-72
2022/01/12 16:53:01;;;;;;;1.60;1.50;;;15.50;74.90;;;;;;2275746;62;30867;-75
2022/01/12 16:55:27;;;;;;;2.13;1.38;;;15.50;74.90;;;;;;2277051;62;30253;-74
2022/01/12 16:57:53;;;;;;;1.98;1.77;;;15.50;74.90;;;;;;2277465;62;30254;-73
2022/01/12 17:00:19;;;;;;;3.88;1.80;;;15.50;75.70;;;;;;2284944;62;30147;-74
2022/01/12 17:02:48;;;;;;;1.60;1.45;;;15.50;74.90;;;;;;2280996;62;30269;-72
2022/01/12 17:05:14;;;;;;;2.33;1.50;;;15.40;74.70;;;;;;2276624;62;30076;-74
2022/01/12 17:07:40;;;;;;;2.08;1.63;;;15.40;74.80;;;;;;2269241;62;31295;-73
2022/01/12 17:10:06;;;;;;;2.97;1.58;;;15.30;74.80;;;;;;2276396;62;30068;-74
2022/01/12 17:12:33;;;;;;;4.03;1.70;;;15.30;74.90;;;;;;2269248;62;30388;-74
2022/01/12 17:15:19;;;;;;;2.03;1.60;;;15.20;74.90;;;;;;2269176;62;30575;-72
2022/01/12 17:18:03;;;;;;;2.25;1.90;;;15.10;74.90;;;;;;2276146;62;30147;-73
2022/01/12 17:20:35;;;;;;;4.03;1.77;;;15.10;75.00;;;;;;2276924;62;30307;-74
2022/01/12 17:23:06;;;;;;;1.95;1.80;;;15.00;75.10;;;;;;2276561;62;31771;-72
2022/01/12 17:25:34;;;;;;;3.20;2.13;;;15.00;75.20;;;;;;2269204;62;30724;-73
2022/01/12 17:28:26;;;;;;;2.25;2.00;;;15.00;75.30;;;;;;2276577;62;30305;-75
2022/01/12 17:30:53;;;;;;;2.00;1.80;;;14.90;75.10;;;;;;2268885;62;30190;-73
2022/01/12 17:33:19;;;;;;;3.35;1.98;;;14.90;75.50;;;;;;2262207;62;30318;-76
2022/01/12 17:35:54;;;;;;;2.30;1.95;;;14.90;75.60;;;;;;2277548;62;30590;-74
2022/01/12 17:38:20;;;;;;;2.65;1.90;;;14.90;75.70;;;;;;2282994;62;30263;-73
2022/01/12 17:40:48;;;;;;;2.53;2.20;;;14.80;75.80;;;;;;2277065;62;30417;-73
2022/01/12 17:43:21;;;;;;;2.58;1.98;;;14.80;75.90;;;;;;2270432;62;31012;-73
2022/01/12 17:45:51;;;;;;;11.77;3.30;;;14.80;76.00;;;;;;2263356;62;30508;-75
2022/01/12 17:48:33;;;;;;;3.67;2.08;;;14.80;76.00;;;;;;2276364;62;30172;-89
2022/01/12 17:50:59;;;;;;;2.60;1.90;;;14.90;76.30;;;;;;2284326;62;30073;-75
2022/01/12 17:53:25;;;;;;;2.60;1.85;;;15.00;76.10;;;;;;2270148;62;31264;-79
2022/01/12 17:55:53;;;;;;;2.53;1.90;;;15.10;76.00;;;;;;2273115;62;30424;-73
2022/01/12 17:58:18;;;;;;;2.78;1.85;;;15.30;75.80;;;;;;2283990;62;30350;-74
2022/01/12 18:00:44;;;;;;;2.50;2.00;;;15.30;75.50;;;;;;2276752;62;30047;-77
2022/01/12 18:03:13;;;;;;;2.15;1.70;;;15.50;75.50;;;;;;2280517;62;30203;-76
2022/01/12 18:05:39;;;;;;;3.15;1.98;;;15.50;75.40;;;;;;2268886;62;30301;-73
2022/01/12 18:08:05;;;;;;;1.73;1.63;;;15.60;75.20;;;;;;2276469;62;30205;-74
2022/01/12 18:10:31;;;;;;;2.15;1.75;;;15.70;75.10;;;;;;2271183;62;30511;-73
2022/01/12 18:12:57;;;;;;;2.00;1.80;;;15.70;74.90;;;;;;2284121;62;30046;-74
2022/01/12 18:15:25;;;;;;;3.75;2.00;;;15.70;74.70;;;;;;2280330;62;30572;-72
2022/01/12 18:17:52;;;;;;;2.22;1.77;;;15.70;74.60;;;;;;2282956;62;30465;-71
2022/01/12 18:20:21;;;;;;;2.33;1.98;;;15.70;74.90;;;;;;2284224;62;30103;-71
2022/01/12 18:22:47;;;;;;;2.30;2.00;;;15.70;74.90;;;;;;2281848;62;30918;-71
2022/01/12 18:25:13;;;;;;;1.80;1.60;;;15.80;75.00;;;;;;2276133;62;30122;-71
2022/01/12 18:27:47;;;;;;;2.35;1.83;;;15.80;74.90;;;;;;2275710;62;30123;-72
2022/01/12 18:30:13;;;;;;;2.20;1.60;;;16.00;74.90;;;;;;2275935;62;30213;-71
2022/01/12 18:32:39;;;;;;;1.75;1.60;;;16.00;74.80;;;;;;2261944;62;30106;-71
2022/01/12 18:35:05;;;;;;;1.55;1.45;;;16.10;74.80;;;;;;2268530;62;31917;-71
2022/01/12 18:37:31;;;;;;;2.17;1.70;;;16.20;74.70;;;;;;2276169;62;30871;-72
2022/01/12 18:40:00;;;;;;;1.75;1.33;;;16.20;74.60;;;;;;2276182;62;30141;-72
2022/01/12 18:42:26;;;;;;;1.80;1.60;;;16.30;74.50;;;;;;2268811;62;30688;-74
2022/01/12 18:44:53;;;;;;;1.60;1.50;;;16.30;74.40;;;;;;2276020;62;30565;-73
2022/01/12 18:47:19;;;;;;;1.88;1.45;;;16.40;74.30;;;;;;2268769;62;30255;-72
2022/01/12 18:49:45;;;;;;;3.65;1.55;;;16.50;74.10;;;;;;2268538;62;30283;-72
2022/01/12 18:52:11;;;;;;;2.45;1.50;;;16.50;74.00;;;;;;2275889;62;30209;-71
2022/01/12 18:54:37;;;;;;;2.08;1.67;;;16.60;73.90;;;;;;2276727;62;30078;-72
2022/01/12 18:57:03;;;;;;;1.60;1.45;;;16.60;73.80;;;;;;2275685;62;30761;-71
2022/01/12 18:59:29;;;;;;;2.67;1.75;;;16.60;73.80;;;;;;2262217;62;30262;-71
2022/01/12 19:01:58;;;;;;;12.65;2.33;;;16.70;73.70;;;;;;2268380;62;31088;-72
2022/01/12 19:04:24;;;;;;;1.60;1.35;;;16.70;73.50;;;;;;2269375;62;30080;-73
2022/01/12 19:06:50;;;;;;;1.58;1.45;;;16.80;73.50;;;;;;2279242;62;30682;-74
2022/01/12 19:09:16;;;;;;;1.48;1.38;;;16.80;73.40;;;;;;2282390;62;30617;-74
2022/01/12 19:11:44;;;;;;;1.42;1.33;;;16.80;73.20;;;;;;2283654;62;30195;-74
2022/01/12 19:14:13;;;;;;;1.30;1.20;;;16.90;73.20;;;;;;2284481;62;30144;-74
2022/01/12 19:16:40;;;;;;;1.90;1.58;;;17.00;73.20;;;;;;2276846;62;30127;-73
2022/01/12 19:19:07;;;;;;;1.55;1.45;;;17.00;73.00;;;;;;2284390;62;30487;-72
2022/01/12 19:21:33;;;;;;;2.33;1.63;;;17.00;72.90;;;;;;2276997;62;30179;-72
2022/01/12 19:24:00;;;;;;;1.90;1.70;;;17.10;72.80;;;;;;2275500;62;31165;-72
2022/01/12 19:26:29;;;;;;;1.55;1.33;;;17.10;72.70;;;;;;2280509;62;30845;-72
2022/01/12 19:28:58;;;;;;;2.35;2.10;;;17.20;72.60;;;;;;2276340;62;30418;-70
2022/01/12 19:31:26;;;;;;;3.10;2.13;;;17.20;72.60;;;;;;2281375;62;31311;-72
2022/01/12 19:33:56;;;;;;;2.10;1.63;;;17.20;72.50;;;;;;2282331;62;30025;-73
2022/01/12 19:36:22;;;;;;;2.40;1.30;;;17.20;72.30;;;;;;2269716;62;30308;-71
2022/01/12 19:38:48;;;;;;;1.98;1.70;;;17.30;72.30;;;;;;2275669;62;30273;-72
2022/01/12 19:41:16;;;;;;;2.15;1.85;;;17.30;72.20;;;;;;2276917;62;30571;-70
2022/01/12 19:43:44;;;;;;;1.75;1.65;;;17.30;72.00;;;;;;2276841;62;30242;-71
2022/01/12 19:46:12;;;;;;;1.75;1.65;;;17.40;72.00;;;;;;2283901;62;30085;-71
2022/01/12 19:48:38;;;;;;;2.30;1.83;;;17.30;71.90;;;;;;2276380;62;30100;-71
2022/01/12 19:51:05;;;;;;;2.00;1.80;;;17.40;71.80;;;;;;2275750;62;30115;-71
2022/01/12 19:53:48;;;;;;;1.67;1.58;;;17.40;71.80;;;;;;2276395;62;30330;-71
2022/01/12 19:56:14;;;;;;;3.33;1.92;;;17.40;71.30;;;;;;2275986;62;30116;-72
2022/01/12 19:59:03;;;;;;;2.72;2.20;;;17.40;71.50;;;;;;2275773;62;30294;-70
2022/01/12 20:01:35;;;;;;;2.28;1.88;;;17.40;71.30;;;;;;2269452;62;31074;-73
2022/01/12 20:04:13;;;;;;;3.60;2.00;;;17.50;71.30;;;;;;2268907;62;30372;-72
2022/01/12 20:06:40;;;;;;;2.30;2.10;;;17.40;71.00;;;;;;2275901;62;30814;-71
2022/01/12 20:09:18;;;;;;;2.10;1.90;;;17.50;71.10;;;;;;2275983;62;29957;-72
2022/01/12 20:11:47;;;;;;;3.80;2.03;;;17.50;70.70;;;;;;2275597;62;30211;-72
2022/01/12 20:14:13;;;;;;;2.25;2.05;;;17.40;71.00;;;;;;2268807;62;30285;-71
2022/01/12 20:16:45;;;;;;;3.17;2.50;;;17.40;70.90;;;;;;2275576;62;30360;-71
2022/01/12 20:22:03;;;;;;;3.72;2.50;;;17.50;70.90;;;;;;2264081;62;30100;-73
2022/01/12 20:24:39;;;;;;;2.58;2.10;;;17.50;70.70;;;;;;2278287;62;30219;-73
2022/01/12 20:27:07;;;;;;;3.30;2.40;;;17.50;70.50;;;;;;2283239;62;30084;-78
2022/01/12 20:29:44;;;;;;;3.33;2.40;;;17.50;70.90;;;;;;2276480;62;30269;-80
2022/01/12 20:32:11;;;;;;;2.42;2.20;;;17.50;70.70;;;;;;2276985;62;30979;-79
2022/01/12 20:34:57;;;;;;;3.60;2.35;;;17.50;70.60;;;;;;2283590;62;30822;-79
2022/01/12 20:37:23;;;;;;;2.80;2.58;;;17.50;70.30;;;;;;2283082;62;30260;-79
2022/01/12 20:39:49;;;;;;;14.95;3.10;;;17.50;70.40;;;;;;2267341;62;31316;-77
2022/01/12 20:42:15;;;;;;;2.75;2.50;;;17.50;70.40;;;;;;2273173;62;31063;-76
2022/01/12 20:44:42;;;;;;;4.35;2.70;;;17.50;70.20;;;;;;2275566;62;30859;-76
2022/01/12 20:47:08;;;;;;;2.80;2.50;;;17.50;70.10;;;;;;2276195;62;30066;-76
2022/01/12 20:49:34;;;;;;;6.68;2.67;;;17.60;70.10;;;;;;2269164;62;30312;-77
2022/01/12 20:52:02;;;;;;;3.22;2.80;;;17.60;70.10;;;;;;2275846;62;30509;-73
2022/01/12 20:54:28;;;;;;;3.22;2.67;;;17.50;70.00;;;;;;2269328;62;30809;-70
2022/01/12 20:56:57;;;;;;;11.88;2.88;;;17.50;70.00;;;;;;2283545;62;30055;-70
2022/01/12 20:59:32;;;;;;;4.05;2.50;;;17.50;70.00;;;;;;2270880;62;30570;-70
2022/01/12 21:01:59;;;;;;;4.30;2.95;;;17.50;69.90;;;;;;2267846;62;30325;-70
2022/01/12 21:04:26;;;;;;;2.72;2.40;;;17.50;70.00;;;;;;2267936;62;30193;-70
2022/01/12 21:06:52;;;;;;;3.25;2.60;;;17.50;70.00;;;;;;2275441;62;30189;-70
2022/01/12 21:09:18;;;;;;;5.93;3.13;;;17.40;70.00;;;;;;2267890;62;30548;-70
2022/01/12 21:11:44;;;;;;;3.80;3.00;;;17.40;70.10;;;;;;2275344;62;30143;-70
2022/01/12 21:14:17;;;;;;;4.57;2.70;;;17.40;70.20;;;;;;2275405;62;30245;-70
2022/01/12 21:16:43;;;;;;;3.38;2.70;;;17.40;70.30;;;;;;2263651;62;30108;-70
2022/01/12 21:19:10;;;;;;;4.18;2.92;;;17.40;70.40;;;;;;2259199;62;30072;-70
2022/01/12 21:21:37;;;;;;;3.00;2.72;;;17.40;70.50;;;;;;2259093;62;30923;-70
2022/01/12 21:24:05;;;;;;;6.35;3.17;;;17.40;70.60;;;;;;2258630;62;30290;-70
2022/01/12 21:26:31;;;;;;;4.63;2.88;;;17.40;70.60;;;;;;2261206;62;30260;-71
2022/01/12 21:28:57;;;;;;;4.22;3.00;;;17.30;70.60;;;;;;2267099;62;30114;-70
2022/01/12 21:31:25;;;;;;;5.85;3.33;;;17.30;70.60;;;;;;2266813;62;30051;-70
2022/01/12 21:33:51;;;;;;;4.50;2.75;;;17.30;70.70;;;;;;2267103;62;30288;-70
2022/01/12 21:36:19;;;;;;;4.40;2.95;;;17.20;70.70;;;;;;2267079;62;30047;-70
2022/01/12 21:39:06;;;;;;;5.05;3.60;;;17.20;70.70;;;;;;2266864;62;30444;-70
2022/01/12 21:41:32;;;;;;;6.18;3.13;;;17.20;70.80;;;;;;2266466;62;30264;-80
2022/01/12 21:44:00;;;;;;;4.90;2.90;;;17.20;70.90;;;;;;2264907;62;30300;-77
2022/01/12 21:46:27;;;;;;;3.95;2.90;;;17.20;70.90;;;;;;2258180;63;30172;-76
2022/01/12 21:48:54;;;;;;;4.22;2.90;;;17.20;70.90;;;;;;2260788;62;30409;-77
2022/01/12 21:51:21;;;;;;;4.38;3.05;;;17.20;70.90;;;;;;2259683;62;30215;-78
2022/01/12 21:53:47;;;;;;;5.45;2.72;;;17.20;70.90;;;;;;2267164;62;31811;-78
2022/01/12 21:56:14;;;;;;;4.05;3.00;;;17.30;70.90;;;;;;2266483;62;30323;-80
2022/01/12 21:58:47;;;;;;;3.50;2.60;;;17.30;70.90;;;;;;2266010;62;30206;-80
2022/01/12 22:01:13;;;;;;;4.82;2.85;;;17.30;70.90;;;;;;2260116;62;30994;-78
2022/01/12 22:03:40;;;;;;;3.33;2.90;;;17.30;70.90;;;;;;2267164;62;30171;-81
2022/01/12 22:06:06;;;;;;;3.53;3.03;;;17.40;70.80;;;;;;2266534;62;30828;-80
2022/01/12 22:08:33;;;;;;;5.47;3.00;;;17.40;70.70;;;;;;2259727;62;30419;-82
2022/01/12 22:10:59;;;;;;;3.60;2.80;;;17.40;70.70;;;;;;2256787;63;30411;-81
2022/01/12 22:13:25;;;;;;;6.07;3.30;;;17.40;70.70;;;;;;2257815;62;30409;-78
2022/01/12 22:15:54;;;;;;;4.70;2.97;;;17.40;70.70;;;;;;2267290;62;30432;-78
2022/01/12 22:18:20;;;;;;;3.15;2.78;;;17.40;70.70;;;;;;2261093;62;30218;-87
2022/01/12 22:20:47;;;;;;;3.50;2.78;;;17.40;71.00;;;;;;2266055;62;30775;-81
2022/01/12 22:23:14;;;;;;;4.38;2.97;;;17.50;70.70;;;;;;2259175;63;30643;-74
2022/01/12 22:25:40;;;;;;;3.65;2.60;;;17.50;70.50;;;;;;2259329;63;30144;-76
2022/01/12 22:28:06;;;;;;;5.22;2.55;;;17.50;70.50;;;;;;2259744;62;30741;-78
2022/01/12 22:30:32;;;;;;;4.25;2.75;;;17.50;70.50;;;;;;2266860;62;30245;-78
2022/01/12 22:32:59;;;;;;;5.65;2.85;;;17.50;70.50;;;;;;2266202;62;30955;-78
2022/01/12 22:35:25;;;;;;;3.20;2.90;;;17.50;70.50;;;;;;2266735;62;29867;-80
2022/01/12 22:37:51;;;;;;;3.85;3.10;;;17.40;70.40;;;;;;2266467;62;30250;-79
2022/01/12 22:40:17;;;;;;;4.22;2.83;;;17.50;70.50;;;;;;2267811;62;30148;-81
2022/01/12 22:42:43;;;;;;;4.43;3.00;;;17.40;70.50;;;;;;2268007;62;30130;-82
2022/01/12 22:45:09;;;;;;;5.65;3.08;;;17.40;70.50;;;;;;2261317;62;30316;-82
2022/01/12 22:47:35;;;;;;;4.88;2.95;;;17.40;70.50;;;;;;2259871;62;31218;-81
2022/01/12 22:50:01;;;;;;;3.72;2.70;;;17.40;70.50;;;;;;2265462;62;31075;-81
2022/01/12 22:52:28;;;;;;;2.58;2.38;;;17.50;70.60;;;;;;2266873;62;30090;-78
2022/01/12 22:54:53;;;;;;;3.28;2.78;;;17.40;70.50;;;;;;2267736;62;30800;-77
2022/01/12 22:57:28;;;;;;;3.97;2.60;;;17.40;70.50;;;;;;2267648;62;30308;-78
2022/01/12 22:59:54;;;;;;;4.22;2.75;;;17.30;70.50;;;;;;2268149;62;30849;-77
2022/01/12 23:02:20;;;;;;;4.40;2.67;;;17.30;70.70;;;;;;2267502;62;30230;-76
2022/01/12 23:04:46;;;;;;;3.25;2.65;;;17.30;70.80;;;;;;2268212;62;30294;-75
2022/01/12 23:07:13;;;;;;;4.47;2.75;;;17.30;70.90;;;;;;2267325;62;30159;-74
2022/01/12 23:09:42;;;;;;;3.60;2.63;;;17.20;70.80;;;;;;2267246;62;31068;-75
2022/01/12 23:12:09;;;;;;;3.67;3.00;;;17.20;70.90;;;;;;2268151;62;30189;-76
2022/01/12 23:14:35;;;;;;;8.18;3.05;;;17.20;70.90;;;;;;2268128;62;30407;-75
2022/01/12 23:17:01;;;;;;;3.13;2.53;;;17.20;71.00;;;;;;2260534;62;30652;-74
2022/01/12 23:19:27;;;;;;;3.85;2.63;;;17.20;71.00;;;;;;2268100;62;30839;-75
2022/01/12 23:21:53;;;;;;;3.78;2.75;;;17.20;71.00;;;;;;2267511;62;30245;-72
2022/01/12 23:24:19;;;;;;;3.63;2.85;;;17.20;71.00;;;;;;2267728;62;30360;-72
